Terminal Aerodrome Forecast
Issued by NWS Twin Cities, MN

Home | Current Version | Previous Version | Text Only | Print | Product List | Glossary On
Versions: 1 2 3 4 5 6 7 8 9 10 11 12 13 14
375
FTUS43 KMPX 250520
TAFSTC
TAF
KSTC 250520Z 2506/2606 30010KT P6SM OVC020
     FM251300 31014G20KT P6SM BKN035
     FM251600 31016G25KT P6SM SCT050
     FM260100 31006KT P6SM SKC=

USA.gov is the U.S. government's official web portal to all federal, state and local government web resources and services.